sensor_id;sensor_type;location;lat;lon;timestamp;temperature;humidity
45537;DHT22;31262;51.978;5.924;2022-12-07T00:02:21;10.30;68.30
45537;DHT22;31262;51.978;5.924;2022-12-07T00:04:48;10.30;68.20
45537;DHT22;31262;51.978;5.924;2022-12-07T00:07:13;10.40;68.30
45537;DHT22;31262;51.978;5.924;2022-12-07T00:09:39;10.50;68.00
45537;DHT22;31262;51.978;5.924;2022-12-07T00:12:06;10.50;67.90
45537;DHT22;31262;51.978;5.924;2022-12-07T00:14:32;10.50;67.90
45537;DHT22;31262;51.978;5.924;2022-12-07T00:16:57;10.40;67.90
45537;DHT22;31262;51.978;5.924;2022-12-07T00:19:23;10.40;67.90
45537;DHT22;31262;51.978;5.924;2022-12-07T00:21:48;10.40;68.00
45537;DHT22;31262;51.978;5.924;2022-12-07T00:24:14;10.40;68.00
45537;DHT22;31262;51.978;5.924;2022-12-07T00:26:40;10.40;68.00
45537;DHT22;31262;51.978;5.924;2022-12-07T00:29:07;10.40;68.10
45537;DHT22;31262;51.978;5.924;2022-12-07T00:31:35;10.30;68.00
45537;DHT22;31262;51.978;5.924;2022-12-07T00:34:04;10.30;68.10
45537;DHT22;31262;51.978;5.924;2022-12-07T00:36:29;10.30;68.20
45537;DHT22;31262;51.978;5.924;2022-12-07T00:38:56;10.30;68.20
45537;DHT22;31262;51.978;5.924;2022-12-07T00:41:23;10.30;68.20
45537;DHT22;31262;51.978;5.924;2022-12-07T00:43:49;10.30;68.20
45537;DHT22;31262;51.978;5.924;2022-12-07T00:46:15;10.20;68.80
45537;DHT22;31262;51.978;5.924;2022-12-07T00:48:41;10.20;68.20
45537;DHT22;31262;51.978;5.924;2022-12-07T00:51:07;10.20;68.30
45537;DHT22;31262;51.978;5.924;2022-12-07T00:53:35;10.10;68.20
45537;DHT22;31262;51.978;5.924;2022-12-07T00:56:07;10.10;68.20
45537;DHT22;31262;51.978;5.924;2022-12-07T00:58:33;10.10;68.20
45537;DHT22;31262;51.978;5.924;2022-12-07T01:01:02;10.10;68.20
45537;DHT22;31262;51.978;5.924;2022-12-07T01:03:27;10.00;68.20
45537;DHT22;31262;51.978;5.924;2022-12-07T01:05:53;10.10;68.20
45537;DHT22;31262;51.978;5.924;2022-12-07T01:08:20;10.00;68.20
45537;DHT22;31262;51.978;5.924;2022-12-07T01:10:45;10.00;68.10
45537;DHT22;31262;51.978;5.924;2022-12-07T01:13:11;10.00;68.10
45537;DHT22;31262;51.978;5.924;2022-12-07T01:15:43;9.90;68.10
45537;DHT22;31262;51.978;5.924;2022-12-07T01:18:09;9.90;68.10
45537;DHT22;31262;51.978;5.924;2022-12-07T01:20:35;9.90;68.10
45537;DHT22;31262;51.978;5.924;2022-12-07T01:23:01;9.90;68.10
45537;DHT22;31262;51.978;5.924;2022-12-07T01:25:27;9.90;68.10
45537;DHT22;31262;51.978;5.924;2022-12-07T01:27:52;9.80;68.10
45537;DHT22;31262;51.978;5.924;2022-12-07T01:30:17;9.70;68.10
45537;DHT22;31262;51.978;5.924;2022-12-07T01:32:43;9.80;68.20
45537;DHT22;31262;51.978;5.924;2022-12-07T01:35:08;9.70;68.70
45537;DHT22;31262;51.978;5.924;2022-12-07T01:37:37;9.70;68.10
45537;DHT22;31262;51.978;5.924;2022-12-07T01:40:07;9.70;68.10
45537;DHT22;31262;51.978;5.924;2022-12-07T01:42:34;9.70;68.10
45537;DHT22;31262;51.978;5.924;2022-12-07T01:47:43;9.60;68.10
45537;DHT22;31262;51.978;5.924;2022-12-07T01:50:10;9.60;68.10
45537;DHT22;31262;51.978;5.924;2022-12-07T01:52:36;9.60;68.10
45537;DHT22;31262;51.978;5.924;2022-12-07T01:55:09;9.50;68.10
45537;DHT22;31262;51.978;5.924;2022-12-07T01:57:37;9.50;68.10
45537;DHT22;31262;51.978;5.924;2022-12-07T02:00:05;9.50;68.10
45537;DHT22;31262;51.978;5.924;2022-12-07T02:02:38;9.50;68.10
45537;DHT22;31262;51.978;5.924;2022-12-07T02:05:06;9.50;68.10
45537;DHT22;31262;51.978;5.924;2022-12-07T02:07:32;9.50;68.10
45537;DHT22;31262;51.978;5.924;2022-12-07T02:12:59;9.40;68.10
45537;DHT22;31262;51.978;5.924;2022-12-07T02:18:09;9.40;68.20
45537;DHT22;31262;51.978;5.924;2022-12-07T02:20:46;9.40;68.10
45537;DHT22;31262;51.978;5.924;2022-12-07T02:28:27;9.30;68.10
45537;DHT22;31262;51.978;5.924;2022-12-07T02:30:54;9.30;68.10
45537;DHT22;31262;51.978;5.924;2022-12-07T02:33:33;9.30;68.10
45537;DHT22;31262;51.978;5.924;2022-12-07T02:36:02;9.30;68.10
45537;DHT22;31262;51.978;5.924;2022-12-07T02:41:05;9.20;68.00
45537;DHT22;31262;51.978;5.924;2022-12-07T02:43:39;9.20;68.10
45537;DHT22;31262;51.978;5.924;2022-12-07T02:46:08;9.20;68.10
45537;DHT22;31262;51.978;5.924;2022-12-07T02:51:19;9.10;68.00
45537;DHT22;31262;51.978;5.924;2022-12-07T02:53:44;9.10;68.00
45537;DHT22;31262;51.978;5.924;2022-12-07T02:58:59;9.10;68.00
45537;DHT22;31262;51.978;5.924;2022-12-07T03:09:46;9.00;68.00
45537;DHT22;31262;51.978;5.924;2022-12-07T03:12:19;9.00;68.00
45537;DHT22;31262;51.978;5.924;2022-12-07T03:14:47;9.00;68.00
45537;DHT22;31262;51.978;5.924;2022-12-07T03:17:19;9.00;68.00
45537;DHT22;31262;51.978;5.924;2022-12-07T03:19:47;9.10;68.00
45537;DHT22;31262;51.978;5.924;2022-12-07T03:22:14;9.00;67.90
45537;DHT22;31262;51.978;5.924;2022-12-07T03:24:42;9.00;67.90
45537;DHT22;31262;51.978;5.924;2022-12-07T03:27:13;9.10;68.00
45537;DHT22;31262;51.978;5.924;2022-12-07T03:29:41;9.10;68.00
45537;DHT22;31262;51.978;5.924;2022-12-07T03:32:10;9.10;68.00
45537;DHT22;31262;51.978;5.924;2022-12-07T03:34:59;9.10;68.00
45537;DHT22;31262;51.978;5.924;2022-12-07T03:37:34;9.20;68.40
45537;DHT22;31262;51.978;5.924;2022-12-07T03:40:05;9.40;67.80
45537;DHT22;31262;51.978;5.924;2022-12-07T03:42:32;9.40;67.60
45537;DHT22;31262;51.978;5.924;2022-12-07T03:44:58;9.40;67.70
45537;DHT22;31262;51.978;5.924;2022-12-07T03:49:50;9.40;68.00
45537;DHT22;31262;51.978;5.924;2022-12-07T03:54:47;9.30;68.00
45537;DHT22;31262;51.978;5.924;2022-12-07T03:57:16;9.30;68.10
45537;DHT22;31262;51.978;5.924;2022-12-07T03:59:42;9.20;68.10
45537;DHT22;31262;51.978;5.924;2022-12-07T04:02:08;9.20;68.20
45537;DHT22;31262;51.978;5.924;2022-12-07T04:04:36;9.20;68.20
45537;DHT22;31262;51.978;5.924;2022-12-07T04:07:01;9.20;68.30
45537;DHT22;31262;51.978;5.924;2022-12-07T04:09:27;9.20;68.30
45537;DHT22;31262;51.978;5.924;2022-12-07T04:11:52;9.20;68.30
45537;DHT22;31262;51.978;5.924;2022-12-07T04:14:18;9.20;68.40
45537;DHT22;31262;51.978;5.924;2022-12-07T04:16:47;9.20;68.40
45537;DHT22;31262;51.978;5.924;2022-12-07T04:19:13;9.20;68.50
45537;DHT22;31262;51.978;5.924;2022-12-07T04:21:39;9.20;68.50
45537;DHT22;31262;51.978;5.924;2022-12-07T04:24:04;9.20;68.50
45537;DHT22;31262;51.978;5.924;2022-12-07T04:26:30;9.20;68.40
45537;DHT22;31262;51.978;5.924;2022-12-07T04:28:55;9.10;68.40
45537;DHT22;31262;51.978;5.924;2022-12-07T04:31:21;9.20;68.50
45537;DHT22;31262;51.978;5.924;2022-12-07T04:33:46;9.10;68.50
45537;DHT22;31262;51.978;5.924;2022-12-07T04:36:12;9.10;68.50
45537;DHT22;31262;51.978;5.924;2022-12-07T04:38:37;9.10;68.60
45537;DHT22;31262;51.978;5.924;2022-12-07T04:41:06;9.00;68.60
45537;DHT22;31262;51.978;5.924;2022-12-07T04:43:31;9.00;68.60
45537;DHT22;31262;51.978;5.924;2022-12-07T04:45:57;9.00;69.30
45537;DHT22;31262;51.978;5.924;2022-12-07T04:48:22;9.00;68.70
45537;DHT22;31262;51.978;5.924;2022-12-07T04:50:48;9.00;68.60
45537;DHT22;31262;51.978;5.924;2022-12-07T04:53:17;9.00;68.60
45537;DHT22;31262;51.978;5.924;2022-12-07T04:55:42;9.00;68.60
45537;DHT22;31262;51.978;5.924;2022-12-07T04:58:07;9.00;68.80
45537;DHT22;31262;51.978;5.924;2022-12-07T05:00:33;9.00;68.80
45537;DHT22;31262;51.978;5.924;2022-12-07T05:02:58;9.00;68.80
45537;DHT22;31262;51.978;5.924;2022-12-07T05:05:24;8.90;68.80
45537;DHT22;31262;51.978;5.924;2022-12-07T05:07:50;9.00;68.90
45537;DHT22;31262;51.978;5.924;2022-12-07T05:10:15;8.90;68.80
45537;DHT22;31262;51.978;5.924;2022-12-07T05:12:41;8.90;68.80
45537;DHT22;31262;51.978;5.924;2022-12-07T05:15:06;8.90;68.80
45537;DHT22;31262;51.978;5.924;2022-12-07T05:17:32;8.90;68.80
45537;DHT22;31262;51.978;5.924;2022-12-07T05:19:57;8.90;68.80
45537;DHT22;31262;51.978;5.924;2022-12-07T05:22:23;8.90;68.80
45537;DHT22;31262;51.978;5.924;2022-12-07T05:24:53;8.90;68.80
45537;DHT22;31262;51.978;5.924;2022-12-07T05:27:19;8.90;68.80
45537;DHT22;31262;51.978;5.924;2022-12-07T05:29:44;8.90;68.80
45537;DHT22;31262;51.978;5.924;2022-12-07T05:32:10;8.90;68.80
45537;DHT22;31262;51.978;5.924;2022-12-07T05:34:35;8.90;68.80
45537;DHT22;31262;51.978;5.924;2022-12-07T05:37:01;8.90;68.80
45537;DHT22;31262;51.978;5.924;2022-12-07T05:39:26;8.80;68.70
45537;DHT22;31262;51.978;5.924;2022-12-07T05:41:52;8.80;68.80
45537;DHT22;31262;51.978;5.924;2022-12-07T05:44:38;8.80;68.70
45537;DHT22;31262;51.978;5.924;2022-12-07T05:47:04;8.80;68.70
45537;DHT22;31262;51.978;5.924;2022-12-07T05:49:29;8.80;68.70
45537;DHT22;31262;51.978;5.924;2022-12-07T05:51:55;8.80;68.80
45537;DHT22;31262;51.978;5.924;2022-12-07T05:54:21;8.70;68.70
45537;DHT22;31262;51.978;5.924;2022-12-07T05:56:46;8.60;68.60
45537;DHT22;31262;51.978;5.924;2022-12-07T05:59:12;8.70;68.70
45537;DHT22;31262;51.978;5.924;2022-12-07T06:01:54;8.70;68.70
45537;DHT22;31262;51.978;5.924;2022-12-07T06:04:20;8.70;69.40
45537;DHT22;31262;51.978;5.924;2022-12-07T06:06:46;8.70;68.70
45537;DHT22;31262;51.978;5.924;2022-12-07T06:09:11;8.70;68.80
45537;DHT22;31262;51.978;5.924;2022-12-07T06:11:38;8.70;68.70
45537;DHT22;31262;51.978;5.924;2022-12-07T06:14:22;8.70;68.80
45537;DHT22;31262;51.978;5.924;2022-12-07T06:16:47;8.70;68.80
45537;DHT22;31262;51.978;5.924;2022-12-07T06:19:13;8.60;68.70
45537;DHT22;31262;51.978;5.924;2022-12-07T06:21:38;8.50;68.60
45537;DHT22;31262;51.978;5.924;2022-12-07T06:24:04;8.70;68.80
45537;DHT22;31262;51.978;5.924;2022-12-07T06:26:30;8.60;68.80
45537;DHT22;31262;51.978;5.924;2022-12-07T06:28:55;8.70;68.90
45537;DHT22;31262;51.978;5.924;2022-12-07T06:31:21;8.70;68.80
45537;DHT22;31262;51.978;5.924;2022-12-07T06:33:46;8.70;68.70
45537;DHT22;31262;51.978;5.924;2022-12-07T06:36:12;8.80;68.50
45537;DHT22;31262;51.978;5.924;2022-12-07T06:38:37;8.70;68.40
45537;DHT22;31262;51.978;5.924;2022-12-07T06:41:03;8.70;68.50
45537;DHT22;31262;51.978;5.924;2022-12-07T06:43:29;8.70;68.50
45537;DHT22;31262;51.978;5.924;2022-12-07T06:45:55;8.60;68.50
45537;DHT22;31262;51.978;5.924;2022-12-07T06:48:20;8.60;68.60
45537;DHT22;31262;51.978;5.924;2022-12-07T06:50:46;8.60;68.60
45537;DHT22;31262;51.978;5.924;2022-12-07T06:53:12;8.50;68.70
45537;DHT22;31262;51.978;5.924;2022-12-07T06:55:38;8.40;68.80
45537;DHT22;31262;51.978;5.924;2022-12-07T06:58:03;8.20;69.00
45537;DHT22;31262;51.978;5.924;2022-12-07T07:00:29;8.10;69.10
45537;DHT22;31262;51.978;5.924;2022-12-07T07:02:55;8.10;69.30
45537;DHT22;31262;51.978;5.924;2022-12-07T07:05:20;8.00;69.40
45537;DHT22;31262;51.978;5.924;2022-12-07T07:07:48;7.90;69.50
45537;DHT22;31262;51.978;5.924;2022-12-07T07:10:13;7.80;69.70
45537;DHT22;31262;51.978;5.924;2022-12-07T07:12:39;7.80;69.80
45537;DHT22;31262;51.978;5.924;2022-12-07T07:15:04;7.70;69.90
45537;DHT22;31262;51.978;5.924;2022-12-07T07:17:30;7.70;70.00
45537;DHT22;31262;51.978;5.924;2022-12-07T07:19:55;7.70;70.70
45537;DHT22;31262;51.978;5.924;2022-12-07T07:22:21;7.80;70.20
45537;DHT22;31262;51.978;5.924;2022-12-07T07:24:46;7.70;70.20
45537;DHT22;31262;51.978;5.924;2022-12-07T07:27:12;7.60;70.30
45537;DHT22;31262;51.978;5.924;2022-12-07T07:29:37;7.60;70.40
45537;DHT22;31262;51.978;5.924;2022-12-07T07:32:03;7.50;70.30
45537;DHT22;31262;51.978;5.924;2022-12-07T07:34:28;7.50;70.40
45537;DHT22;31262;51.978;5.924;2022-12-07T07:36:54;7.60;70.50
45537;DHT22;31262;51.978;5.924;2022-12-07T07:39:19;7.60;70.50
45537;DHT22;31262;51.978;5.924;2022-12-07T07:41:45;7.60;70.60
45537;DHT22;31262;51.978;5.924;2022-12-07T07:44:11;7.50;70.60
45537;DHT22;31262;51.978;5.924;2022-12-07T07:46:37;7.40;70.60
45537;DHT22;31262;51.978;5.924;2022-12-07T07:49:02;7.40;70.60
45537;DHT22;31262;51.978;5.924;2022-12-07T07:51:27;7.40;70.70
45537;DHT22;31262;51.978;5.924;2022-12-07T07:53:53;7.40;71.40
45537;DHT22;31262;51.978;5.924;2022-12-07T07:56:19;7.40;70.80
45537;DHT22;31262;51.978;5.924;2022-12-07T07:58:44;7.30;70.80
45537;DHT22;31262;51.978;5.924;2022-12-07T08:01:10;7.40;70.80
45537;DHT22;31262;51.978;5.924;2022-12-07T08:03:35;7.40;70.90
45537;DHT22;31262;51.978;5.924;2022-12-07T08:06:02;7.40;70.90
45537;DHT22;31262;51.978;5.924;2022-12-07T08:08:28;7.40;71.00
45537;DHT22;31262;51.978;5.924;2022-12-07T08:10:53;7.40;71.10
45537;DHT22;31262;51.978;5.924;2022-12-07T08:13:18;7.30;71.00
45537;DHT22;31262;51.978;5.924;2022-12-07T08:15:45;7.30;71.20
45537;DHT22;31262;51.978;5.924;2022-12-07T08:18:11;7.40;71.20
45537;DHT22;31262;51.978;5.924;2022-12-07T08:20:37;7.30;71.90
45537;DHT22;31262;51.978;5.924;2022-12-07T08:23:03;7.30;71.30
45537;DHT22;31262;51.978;5.924;2022-12-07T08:25:28;7.30;71.40
45537;DHT22;31262;51.978;5.924;2022-12-07T08:27:54;7.40;71.60
45537;DHT22;31262;51.978;5.924;2022-12-07T08:30:20;7.50;71.70
45537;DHT22;31262;51.978;5.924;2022-12-07T08:32:46;7.40;71.70
45537;DHT22;31262;51.978;5.924;2022-12-07T08:35:11;7.50;71.80
45537;DHT22;31262;51.978;5.924;2022-12-07T08:37:38;7.50;71.90
45537;DHT22;31262;51.978;5.924;2022-12-07T08:40:04;7.50;72.00
45537;DHT22;31262;51.978;5.924;2022-12-07T08:42:30;7.50;72.00
45537;DHT22;31262;51.978;5.924;2022-12-07T08:45:08;7.50;72.10
45537;DHT22;31262;51.978;5.924;2022-12-07T08:47:39;7.50;72.40
45537;DHT22;31262;51.978;5.924;2022-12-07T08:50:05;7.50;72.80
45537;DHT22;31262;51.978;5.924;2022-12-07T08:52:32;7.50;73.20
45537;DHT22;31262;51.978;5.924;2022-12-07T08:54:58;7.50;73.30
45537;DHT22;31262;51.978;5.924;2022-12-07T08:57:24;7.60;73.40
45537;DHT22;31262;51.978;5.924;2022-12-07T08:59:49;7.60;73.30
45537;DHT22;31262;51.978;5.924;2022-12-07T09:02:15;7.70;73.20
45537;DHT22;31262;51.978;5.924;2022-12-07T09:04:40;7.70;73.20
45537;DHT22;31262;51.978;5.924;2022-12-07T09:07:06;7.70;73.20
45537;DHT22;31262;51.978;5.924;2022-12-07T09:09:31;7.70;73.20
45537;DHT22;31262;51.978;5.924;2022-12-07T09:11:57;7.70;73.20
45537;DHT22;31262;51.978;5.924;2022-12-07T09:14:23;7.70;73.30
45537;DHT22;31262;51.978;5.924;2022-12-07T09:16:48;7.80;73.40
45537;DHT22;31262;51.978;5.924;2022-12-07T09:19:14;7.80;73.40
45537;DHT22;31262;51.978;5.924;2022-12-07T09:21:39;7.90;73.30
45537;DHT22;31262;51.978;5.924;2022-12-07T09:24:05;7.80;73.30
45537;DHT22;31262;51.978;5.924;2022-12-07T09:26:31;7.90;73.40
45537;DHT22;31262;51.978;5.924;2022-12-07T09:28:56;7.90;73.40
45537;DHT22;31262;51.978;5.924;2022-12-07T09:31:22;7.90;73.40
45537;DHT22;31262;51.978;5.924;2022-12-07T09:33:52;7.90;73.50
45537;DHT22;31262;51.978;5.924;2022-12-07T09:36:17;8.00;73.60
45537;DHT22;31262;51.978;5.924;2022-12-07T09:38:43;8.00;74.20
45537;DHT22;31262;51.978;5.924;2022-12-07T09:41:08;8.10;73.60
45537;DHT22;31262;51.978;5.924;2022-12-07T09:43:34;8.10;73.50
45537;DHT22;31262;51.978;5.924;2022-12-07T09:46:00;8.10;73.60
45537;DHT22;31262;51.978;5.924;2022-12-07T09:48:30;8.10;73.80
45537;DHT22;31262;51.978;5.924;2022-12-07T09:50:57;8.10;73.90
45537;DHT22;31262;51.978;5.924;2022-12-07T09:55:48;8.20;74.10
45537;DHT22;31262;51.978;5.924;2022-12-07T09:58:19;8.20;74.20
45537;DHT22;31262;51.978;5.924;2022-12-07T10:00:45;8.20;74.30
45537;DHT22;31262;51.978;5.924;2022-12-07T10:03:11;8.20;74.40
45537;DHT22;31262;51.978;5.924;2022-12-07T10:05:38;8.20;74.40
45537;DHT22;31262;51.978;5.924;2022-12-07T10:08:07;8.10;74.30
45537;DHT22;31262;51.978;5.924;2022-12-07T10:10:34;8.20;74.60
45537;DHT22;31262;51.978;5.924;2022-12-07T10:13:07;8.10;74.70
45537;DHT22;31262;51.978;5.924;2022-12-07T10:20:46;8.20;74.80
45537;DHT22;31262;51.978;5.924;2022-12-07T10:23:16;8.20;74.80
45537;DHT22;31262;51.978;5.924;2022-12-07T10:25:42;8.30;74.70
45537;DHT22;31262;51.978;5.924;2022-12-07T10:30:45;8.30;74.60
45537;DHT22;31262;51.978;5.924;2022-12-07T10:33:27;8.30;74.50
45537;DHT22;31262;51.978;5.924;2022-12-07T10:35:53;8.50;75.00
45537;DHT22;31262;51.978;5.924;2022-12-07T10:38:19;8.60;74.00
45537;DHT22;31262;51.978;5.924;2022-12-07T10:40:44;8.70;73.80
45537;DHT22;31262;51.978;5.924;2022-12-07T10:45:43;9.00;73.50
45537;DHT22;31262;51.978;5.924;2022-12-07T10:51:30;9.50;73.10
45537;DHT22;31262;51.978;5.924;2022-12-07T11:10:18;11.00;68.70
45537;DHT22;31262;51.978;5.924;2022-12-07T11:12:57;10.90;68.50
45537;DHT22;31262;51.978;5.924;2022-12-07T11:15:36;10.80;68.10
45537;DHT22;31262;51.978;5.924;2022-12-07T11:18:06;10.70;68.40
45537;DHT22;31262;51.978;5.924;2022-12-07T11:25:58;10.70;67.40
45537;DHT22;31262;51.978;5.924;2022-12-07T11:33:47;10.80;66.70
45537;DHT22;31262;51.978;5.924;2022-12-07T11:38:43;11.30;66.40
45537;DHT22;31262;51.978;5.924;2022-12-07T11:41:09;11.60;66.60
45537;DHT22;31262;51.978;5.924;2022-12-07T11:43:42;12.10;65.10
45537;DHT22;31262;51.978;5.924;2022-12-07T11:46:12;12.60;63.90
45537;DHT22;31262;51.978;5.924;2022-12-07T11:48:44;13.10;62.10
45537;DHT22;31262;51.978;5.924;2022-12-07T11:51:11;13.40;60.00
45537;DHT22;31262;51.978;5.924;2022-12-07T11:53:38;13.70;59.70
45537;DHT22;31262;51.978;5.924;2022-12-07T12:03:30;15.10;55.80
45537;DHT22;31262;51.978;5.924;2022-12-07T12:05:58;15.30;55.50
45537;DHT22;31262;51.978;5.924;2022-12-07T12:08:27;15.30;54.60
45537;DHT22;31262;51.978;5.924;2022-12-07T12:21:53;14.10;55.30
45537;DHT22;31262;51.978;5.924;2022-12-07T12:24:22;13.90;56.00
45537;DHT22;31262;51.978;5.924;2022-12-07T12:26:53;13.80;56.40
45537;DHT22;31262;51.978;5.924;2022-12-07T12:29:21;13.70;56.80
45537;DHT22;31262;51.978;5.924;2022-12-07T12:32:04;13.70;56.80
45537;DHT22;31262;51.978;5.924;2022-12-07T12:34:32;13.80;57.00
45537;DHT22;31262;51.978;5.924;2022-12-07T12:36:57;13.80;56.50
45537;DHT22;31262;51.978;5.924;2022-12-07T12:39:23;13.80;56.70
45537;DHT22;31262;51.978;5.924;2022-12-07T12:41:51;13.90;56.90
45537;DHT22;31262;51.978;5.924;2022-12-07T12:49:24;14.10;56.40
45537;DHT22;31262;51.978;5.924;2022-12-07T12:57:00;14.20;56.70
45537;DHT22;31262;51.978;5.924;2022-12-07T12:59:29;14.30;56.70
45537;DHT22;31262;51.978;5.924;2022-12-07T13:04:28;14.50;55.40
45537;DHT22;31262;51.978;5.924;2022-12-07T13:06:55;14.60;55.60
45537;DHT22;31262;51.978;5.924;2022-12-07T13:09:26;14.60;55.40
45537;DHT22;31262;51.978;5.924;2022-12-07T13:12:05;14.70;55.00
45537;DHT22;31262;51.978;5.924;2022-12-07T13:14:53;14.70;54.90
45537;DHT22;31262;51.978;5.924;2022-12-07T13:20:00;14.60;54.30
45537;DHT22;31262;51.978;5.924;2022-12-07T13:27:26;14.20;55.20
45537;DHT22;31262;51.978;5.924;2022-12-07T13:29:52;14.10;55.70
45537;DHT22;31262;51.978;5.924;2022-12-07T13:32:25;14.10;56.10
45537;DHT22;31262;51.978;5.924;2022-12-07T13:34:51;14.10;56.20
45537;DHT22;31262;51.978;5.924;2022-12-07T13:37:21;14.00;55.50
45537;DHT22;31262;51.978;5.924;2022-12-07T13:39:49;13.90;55.70
45537;DHT22;31262;51.978;5.924;2022-12-07T13:42:28;13.80;55.90
45537;DHT22;31262;51.978;5.924;2022-12-07T13:44:54;13.70;56.10
45537;DHT22;31262;51.978;5.924;2022-12-07T13:47:36;13.40;56.50
45537;DHT22;31262;51.978;5.924;2022-12-07T13:50:25;13.30;57.00
45537;DHT22;31262;51.978;5.924;2022-12-07T13:52:54;13.20;57.80
45537;DHT22;31262;51.978;5.924;2022-12-07T13:55:20;13.10;58.10
45537;DHT22;31262;51.978;5.924;2022-12-07T13:57:46;13.10;58.50
45537;DHT22;31262;51.978;5.924;2022-12-07T14:00:21;12.90;58.50
45537;DHT22;31262;51.978;5.924;2022-12-07T14:05:26;12.70;59.20
45537;DHT22;31262;51.978;5.924;2022-12-07T14:10:30;12.50;59.90
45537;DHT22;31262;51.978;5.924;2022-12-07T14:12:56;12.40;60.30
45537;DHT22;31262;51.978;5.924;2022-12-07T14:15:23;12.30;60.60
45537;DHT22;31262;51.978;5.924;2022-12-07T14:17:50;12.20;60.90
45537;DHT22;31262;51.978;5.924;2022-12-07T14:20:33;12.10;61.80
45537;DHT22;31262;51.978;5.924;2022-12-07T14:22:59;12.00;62.00
45537;DHT22;31262;51.978;5.924;2022-12-07T14:25:25;11.80;61.80
45537;DHT22;31262;51.978;5.924;2022-12-07T14:30:18;11.60;61.80
45537;DHT22;31262;51.978;5.924;2022-12-07T14:32:44;11.40;61.70
45537;DHT22;31262;51.978;5.924;2022-12-07T14:35:14;11.30;62.00
45537;DHT22;31262;51.978;5.924;2022-12-07T14:37:41;11.10;62.20
45537;DHT22;31262;51.978;5.924;2022-12-07T14:40:06;11.10;62.60
45537;DHT22;31262;51.978;5.924;2022-12-07T14:42:32;11.00;62.80
45537;DHT22;31262;51.978;5.924;2022-12-07T14:44:58;10.90;63.00
45537;DHT22;31262;51.978;5.924;2022-12-07T14:47:24;10.80;63.20
45537;DHT22;31262;51.978;5.924;2022-12-07T14:49:50;10.80;63.40
45537;DHT22;31262;51.978;5.924;2022-12-07T14:52:36;10.70;63.60
45537;DHT22;31262;51.978;5.924;2022-12-07T14:55:01;10.60;63.80
45537;DHT22;31262;51.978;5.924;2022-12-07T14:57:26;10.60;64.10
45537;DHT22;31262;51.978;5.924;2022-12-07T14:59:52;10.50;64.10
45537;DHT22;31262;51.978;5.924;2022-12-07T15:02:17;10.50;64.30
45537;DHT22;31262;51.978;5.924;2022-12-07T15:04:43;10.40;64.50
45537;DHT22;31262;51.978;5.924;2022-12-07T15:07:12;10.40;64.70
45537;DHT22;31262;51.978;5.924;2022-12-07T15:09:38;10.40;64.80
45537;DHT22;31262;51.978;5.924;2022-12-07T15:12:04;10.50;64.90
45537;DHT22;31262;51.978;5.924;2022-12-07T15:14:29;10.40;64.90
45537;DHT22;31262;51.978;5.924;2022-12-07T15:16:55;10.40;65.00
45537;DHT22;31262;51.978;5.924;2022-12-07T15:19:21;10.40;65.10
45537;DHT22;31262;51.978;5.924;2022-12-07T15:21:53;10.40;65.30
45537;DHT22;31262;51.978;5.924;2022-12-07T15:24:18;10.40;65.80
45537;DHT22;31262;51.978;5.924;2022-12-07T15:26:44;10.30;66.10
45537;DHT22;31262;51.978;5.924;2022-12-07T15:29:10;10.30;66.40
45537;DHT22;31262;51.978;5.924;2022-12-07T15:31:36;10.20;66.40
45537;DHT22;31262;51.978;5.924;2022-12-07T15:34:03;10.20;66.40
45537;DHT22;31262;51.978;5.924;2022-12-07T15:36:29;10.20;66.50
45537;DHT22;31262;51.978;5.924;2022-12-07T15:38:55;10.20;66.70
45537;DHT22;31262;51.978;5.924;2022-12-07T15:41:21;10.10;66.70
45537;DHT22;31262;51.978;5.924;2022-12-07T15:43:47;10.10;67.10
45537;DHT22;31262;51.978;5.924;2022-12-07T15:46:31;10.00;67.40
45537;DHT22;31262;51.978;5.924;2022-12-07T15:48:57;10.00;67.80
45537;DHT22;31262;51.978;5.924;2022-12-07T15:51:22;10.00;67.90
45537;DHT22;31262;51.978;5.924;2022-12-07T15:53:48;9.80;67.90
45537;DHT22;31262;51.978;5.924;2022-12-07T15:56:13;9.80;67.90
45537;DHT22;31262;51.978;5.924;2022-12-07T15:58:39;9.80;68.00
45537;DHT22;31262;51.978;5.924;2022-12-07T16:01:13;9.70;68.20
45537;DHT22;31262;51.978;5.924;2022-12-07T16:03:39;9.70;68.50
45537;DHT22;31262;51.978;5.924;2022-12-07T16:06:04;9.70;68.40
45537;DHT22;31262;51.978;5.924;2022-12-07T16:08:30;9.70;68.40
45537;DHT22;31262;51.978;5.924;2022-12-07T16:10:55;9.70;68.40
45537;DHT22;31262;51.978;5.924;2022-12-07T16:13:21;9.80;68.40
45537;DHT22;31262;51.978;5.924;2022-12-07T16:15:46;9.80;68.30
45537;DHT22;31262;51.978;5.924;2022-12-07T16:18:12;9.90;68.30
45537;DHT22;31262;51.978;5.924;2022-12-07T16:20:37;9.90;68.20
45537;DHT22;31262;51.978;5.924;2022-12-07T16:23:03;10.00;68.00
45537;DHT22;31262;51.978;5.924;2022-12-07T16:25:29;10.10;67.90
45537;DHT22;31262;51.978;5.924;2022-12-07T16:27:54;10.30;67.80
45537;DHT22;31262;51.978;5.924;2022-12-07T16:30:20;10.40;67.50
45537;DHT22;31262;51.978;5.924;2022-12-07T16:32:46;10.50;67.30
45537;DHT22;31262;51.978;5.924;2022-12-07T16:35:11;10.70;67.10
45537;DHT22;31262;51.978;5.924;2022-12-07T16:37:37;10.90;67.00
45537;DHT22;31262;51.978;5.924;2022-12-07T16:40:03;11.00;66.50
45537;DHT22;31262;51.978;5.924;2022-12-07T16:42:32;11.20;66.20
45537;DHT22;31262;51.978;5.924;2022-12-07T16:45:00;11.30;66.00
45537;DHT22;31262;51.978;5.924;2022-12-07T16:47:26;11.30;65.60
45537;DHT22;31262;51.978;5.924;2022-12-07T16:49:52;11.50;65.70
45537;DHT22;31262;51.978;5.924;2022-12-07T16:52:20;11.60;65.60
45537;DHT22;31262;51.978;5.924;2022-12-07T16:54:46;11.70;65.40
45537;DHT22;31262;51.978;5.924;2022-12-07T16:57:12;11.70;65.20
45537;DHT22;31262;51.978;5.924;2022-12-07T16:59:38;11.80;65.10
45537;DHT22;31262;51.978;5.924;2022-12-07T17:02:03;11.80;65.10
45537;DHT22;31262;51.978;5.924;2022-12-07T17:04:29;11.90;65.10
45537;DHT22;31262;51.978;5.924;2022-12-07T17:06:54;11.80;65.00
45537;DHT22;31262;51.978;5.924;2022-12-07T17:09:20;11.80;64.60
45537;DHT22;31262;51.978;5.924;2022-12-07T17:11:45;11.80;64.50
45537;DHT22;31262;51.978;5.924;2022-12-07T17:14:11;11.70;64.40
45537;DHT22;31262;51.978;5.924;2022-12-07T17:16:55;11.70;64.20
45537;DHT22;31262;51.978;5.924;2022-12-07T17:19:21;11.70;63.90
45537;DHT22;31262;51.978;5.924;2022-12-07T17:21:47;11.60;63.90
45537;DHT22;31262;51.978;5.924;2022-12-07T17:24:14;11.60;64.00
45537;DHT22;31262;51.978;5.924;2022-12-07T17:26:40;11.70;63.90
45537;DHT22;31262;51.978;5.924;2022-12-07T17:29:06;11.70;63.80
45537;DHT22;31262;51.978;5.924;2022-12-07T17:31:34;11.70;63.40
45537;DHT22;31262;51.978;5.924;2022-12-07T17:33:59;11.80;63.30
45537;DHT22;31262;51.978;5.924;2022-12-07T17:36:26;11.80;63.30
45537;DHT22;31262;51.978;5.924;2022-12-07T17:38:51;11.80;62.90
45537;DHT22;31262;51.978;5.924;2022-12-07T17:41:18;11.80;62.70
45537;DHT22;31262;51.978;5.924;2022-12-07T17:44:03;11.80;63.00
45537;DHT22;31262;51.978;5.924;2022-12-07T17:46:29;11.80;62.90
45537;DHT22;31262;51.978;5.924;2022-12-07T17:48:55;11.80;63.10